createdAt,value
2023-03-22T00:02:26.401Z,0.53
2023-03-22T00:17:28.913Z,0.37
2023-03-22T00:32:34.358Z,0.43
2023-03-22T00:47:36.837Z,0.40
2023-03-22T01:02:38.930Z,0.42
2023-03-22T01:17:41.122Z,0.36
2023-03-22T01:32:43.227Z,0.32
2023-03-22T01:47:58.664Z,0.29
2023-03-22T02:03:00.886Z,0.19
2023-03-22T02:18:11.565Z,0.02
2023-03-22T02:33:41.841Z,-0.02
2023-03-22T02:48:49.987Z,-0.06
2023-03-22T03:03:56.700Z,-0.08
2023-03-22T03:19:25.783Z,-0.05
2023-03-22T03:34:51.636Z,-0.02
2023-03-22T03:49:53.673Z,-0.12
2023-03-22T04:04:55.684Z,-0.15
2023-03-22T04:19:57.932Z,-0.15
2023-03-22T04:34:59.925Z,-0.06
2023-03-22T04:50:01.918Z,-0.09
2023-03-22T05:05:04.019Z,0.11
2023-03-22T05:20:10.458Z,0.44
2023-03-22T05:35:12.462Z,0.91
2023-03-22T05:50:17.494Z,1.53
2023-03-22T06:05:21.273Z,2.71
2023-03-22T06:20:23.332Z,3.97
2023-03-22T06:35:25.755Z,4.90
2023-03-22T06:50:28.595Z,5.36
2023-03-22T07:05:31.128Z,5.90
2023-03-22T07:20:37.196Z,6.36
2023-03-22T07:35:39.445Z,7.53
2023-03-22T07:50:42.319Z,8.16
2023-03-22T08:05:44.552Z,8.31
2023-03-22T08:20:46.767Z,8.53
2023-03-22T08:35:48.795Z,8.95
2023-03-22T08:50:50.948Z,8.90
2023-03-22T09:05:53.468Z,8.77
2023-03-22T09:20:55.679Z,8.95
2023-03-22T09:35:58.225Z,9.52
2023-03-22T09:51:02.880Z,9.72
2023-03-22T10:06:15.575Z,10.04
2023-03-22T10:21:19.617Z,10.20
2023-03-22T10:36:25.351Z,10.23
2023-03-22T10:51:36.139Z,10.10
2023-03-22T11:06:54.825Z,9.55
2023-03-22T11:21:59.393Z,9.63
2023-03-22T11:37:08.772Z,10.86
2023-03-22T11:52:16.862Z,11.90
2023-03-22T12:07:24.917Z,12.38
2023-03-22T12:22:32.645Z,12.29
2023-03-22T12:37:36.487Z,12.15
2023-03-22T12:52:45.707Z,12.13
2023-03-22T13:07:48.155Z,12.26
2023-03-22T13:22:50.122Z,12.67
2023-03-22T13:37:52.645Z,12.63
2023-03-22T13:53:04.466Z,12.64
2023-03-22T14:08:07.608Z,12.88
